Time;durP1;ratioP1;P1;durP2;ratioP2;P2;SDS_P1;SDS_P2;PMS_P1;PMS_P2;Temp;Humidity;BMP_temperature;BMP_pressure;BME280_temperature;BME280_humidity;BME280_pressure;Samples;Min_cycle;Max_cycle;Signal;HPM_P1;HPM_P2
2022/02/19 00:00:50;;;;;;;;;;;22.60;27.70;;;;;;5045231;28;19917;-43
2022/02/19 00:03:15;;;;;;;;;;;22.60;27.70;;;;;;5048030;28;19904;-43
2022/02/19 00:05:41;;;;;;;;;;;22.60;27.70;;;;;;5049164;28;19905;-41
2022/02/19 00:08:08;;;;;;;;;;;22.60;27.70;;;;;;5049495;28;19954;-43
2022/02/19 00:10:34;;;;;;;;;;;22.60;27.70;;;;;;5039051;28;19905;-42
2022/02/19 00:13:00;;;;;;;;;;;22.60;27.80;;;;;;5037676;28;20243;-44
2022/02/19 00:15:26;;;;;;;;;;;22.60;27.70;;;;;;5043909;28;19977;-47
2022/02/19 00:17:52;;;;;;;;;;;22.50;27.70;;;;;;5053991;28;19908;-44
2022/02/19 00:20:18;;;;;;;;;;;22.50;27.70;;;;;;5051483;28;19905;-47
2022/02/19 00:22:43;;;;;;;;;;;22.50;27.70;;;;;;5054965;28;19905;-43
2022/02/19 00:25:09;;;;;;;;;;;22.50;27.70;;;;;;5047576;28;19905;-41
2022/02/19 00:27:35;;;;;;;;;;;22.50;27.70;;;;;;5043102;28;19905;-46
2022/02/19 00:30:02;;;;;;;;;;;22.50;27.70;;;;;;5043337;28;19987;-41
2022/02/19 00:32:30;;;;;;;;;;;22.50;27.70;;;;;;5050670;28;19909;-44
2022/02/19 00:34:57;;;;;;;;;;;22.40;27.70;;;;;;5033088;28;20229;-42
2022/02/19 00:37:22;;;;;;;;;;;22.40;27.70;;;;;;5046777;28;19920;-44
2022/02/19 00:39:48;;;;;;;;;;;22.40;27.70;;;;;;5044190;28;20232;-44
2022/02/19 00:42:13;;;;;;;;;;;22.40;27.70;;;;;;5033319;28;19912;-46
2022/02/19 00:44:39;;;;;;;;;;;22.40;27.70;;;;;;5044078;28;20411;-40
2022/02/19 00:47:05;;;;;;;;;;;22.40;27.70;;;;;;5050021;28;19916;-42
2022/02/19 00:49:30;;;;;;;;;;;22.40;27.80;;;;;;5026395;28;20244;-42
2022/02/19 00:51:57;;;;;;;;;;;22.40;27.80;;;;;;5031777;28;19948;-43
2022/02/19 00:54:23;;;;;;;;;;;22.40;27.80;;;;;;5049829;28;19904;-47
2022/02/19 00:56:49;;;;;;;;;;;22.30;27.70;;;;;;5024650;28;19935;-43
2022/02/19 00:59:14;;;;;;;;;;;22.30;27.80;;;;;;5023341;28;20232;-41
2022/02/19 01:01:43;;;;;;;;;;;22.30;27.80;;;;;;5031014;28;20332;-42
2022/02/19 01:04:35;;;;;;;;;;;22.30;27.80;;;;;;5041555;28;19909;-43
2022/02/19 01:07:01;;;;;;;;;;;22.30;27.80;;;;;;5044187;28;20351;-45
2022/02/19 01:09:26;;;;;;;;;;;22.30;27.80;;;;;;5027088;28;20275;-43
2022/02/19 01:11:53;;;;;;;;;;;22.30;27.80;;;;;;5025577;28;19992;-41
2022/02/19 01:14:19;;;;;;;;;;;22.20;27.70;;;;;;5023592;28;19928;-42
2022/02/19 01:16:45;;;;;;;;;;;22.20;27.80;;;;;;5048210;28;19913;-42
2022/02/19 01:19:10;;;;;;;;;;;22.20;27.80;;;;;;5025868;28;19996;-45
2022/02/19 01:21:36;;;;;;;;;;;22.20;27.80;;;;;;5032493;28;20394;-44
2022/02/19 01:24:02;;;;;;;;;;;22.20;27.80;;;;;;5033020;28;19912;-42
2022/02/19 01:26:28;;;;;;;;;;;22.20;27.80;;;;;;5050466;28;19919;-42
2022/02/19 01:28:54;;;;;;;;;;;22.20;27.80;;;;;;5034081;28;20248;-41
2022/02/19 01:31:24;;;;;;;;;;;22.20;27.80;;;;;;5035162;28;20000;-43
2022/02/19 01:33:51;;;;;;;;;;;22.20;27.90;;;;;;5031455;28;19936;-42
2022/02/19 01:36:16;;;;;;;;;;;22.10;27.80;;;;;;5029142;28;19913;-44
2022/02/19 01:38:42;;;;;;;;;;;22.20;27.90;;;;;;5041823;28;19916;-43
2022/02/19 01:41:08;;;;;;;;;;;22.10;27.80;;;;;;5052604;28;19905;-44
2022/02/19 01:43:35;;;;;;;;;;;22.10;27.80;;;;;;5031987;28;19987;-41
2022/02/19 01:46:02;;;;;;;;;;;22.10;27.80;;;;;;5026984;28;19916;-42
2022/02/19 01:48:28;;;;;;;;;;;22.10;27.80;;;;;;5034044;28;19905;-42
2022/02/19 01:50:55;;;;;;;;;;;22.10;27.90;;;;;;5034987;28;19995;-43
2022/02/19 01:53:23;;;;;;;;;;;22.10;27.90;;;;;;5041493;28;19909;-42
2022/02/19 01:55:57;;;;;;;;;;;22.10;27.90;;;;;;5022031;28;19925;-46
2022/02/19 01:58:34;;;;;;;;;;;22.10;27.90;;;;;;5039815;28;19909;-40
2022/02/19 02:01:14;;;;;;;;;;;22.10;27.90;;;;;;5025964;28;20368;-42
2022/02/19 02:03:57;;;;;;;;;;;22.10;27.80;;;;;;5053689;28;19909;-44
2022/02/19 02:06:28;;;;;;;;;;;22.00;27.80;;;;;;5049043;28;19904;-42
2022/02/19 02:08:57;;;;;;;;;;;22.00;27.80;;;;;;5028432;28;20224;-41
2022/02/19 02:11:26;;;;;;;;;;;22.00;27.80;;;;;;5042225;28;19909;-42
2022/02/19 02:13:56;;;;;;;;;;;22.00;27.80;;;;;;5040181;28;19905;-41
2022/02/19 02:16:43;;;;;;;;;;;22.00;27.80;;;;;;5030722;28;20216;-41
2022/02/19 02:19:10;;;;;;;;;;;22.00;27.80;;;;;;5020640;28;19905;-40
2022/02/19 02:21:44;;;;;;;;;;;22.00;27.80;;;;;;5041173;28;19917;-41
2022/02/19 02:24:11;;;;;;;;;;;21.90;27.80;;;;;;5021957;28;19905;-44
2022/02/19 02:26:38;;;;;;;;;;;21.90;27.80;;;;;;5008486;28;19999;-41
2022/02/19 02:29:05;;;;;;;;;;;21.90;27.80;;;;;;5039799;28;20387;-44
2022/02/19 02:31:32;;;;;;;;;;;21.90;27.70;;;;;;5031857;28;20296;-41
2022/02/19 02:33:59;;;;;;;;;;;21.90;27.70;;;;;;5030364;28;19927;-48
2022/02/19 02:36:25;;;;;;;;;;;21.90;27.80;;;;;;5042499;28;19996;-42
2022/02/19 02:38:53;;;;;;;;;;;21.90;27.80;;;;;;5023849;28;20007;-41
2022/02/19 02:41:21;;;;;;;;;;;21.90;27.80;;;;;;5040529;28;19905;-41
2022/02/19 02:43:47;;;;;;;;;;;21.90;27.80;;;;;;5030179;28;20008;-42
2022/02/19 02:46:13;;;;;;;;;;;21.90;27.80;;;;;;5052928;28;20287;-40
2022/02/19 02:48:38;;;;;;;;;;;21.90;27.80;;;;;;5041355;28;19905;-40
2022/02/19 02:51:05;;;;;;;;;;;21.80;27.70;;;;;;5023342;28;20224;-42
2022/02/19 02:53:31;;;;;;;;;;;21.80;27.70;;;;;;5033511;28;19983;-42
2022/02/19 02:55:57;;;;;;;;;;;21.80;27.80;;;;;;5033958;28;19912;-43
2022/02/19 02:58:23;;;;;;;;;;;21.80;27.70;;;;;;5037711;28;20263;-41
2022/02/19 03:00:52;;;;;;;;;;;21.80;27.70;;;;;;5031341;28;19917;-42
2022/02/19 03:03:18;;;;;;;;;;;21.80;27.70;;;;;;5020451;28;19905;-44
2022/02/19 03:05:44;;;;;;;;;;;21.80;27.70;;;;;;5025270;28;19955;-42
2022/02/19 03:08:10;;;;;;;;;;;21.80;27.70;;;;;;5029259;28;19905;-47
2022/02/19 03:10:35;;;;;;;;;;;21.80;27.80;;;;;;5025333;28;20317;-47
2022/02/19 03:13:02;;;;;;;;;;;21.80;28.30;;;;;;5018892;28;20264;-46
2022/02/19 03:15:28;;;;;;;;;;;21.80;27.80;;;;;;5019563;28;19967;-42
2022/02/19 03:17:53;;;;;;;;;;;21.80;27.80;;;;;;5023500;28;19906;-45
2022/02/19 03:20:20;;;;;;;;;;;21.80;27.70;;;;;;5016504;28;19905;-49
2022/02/19 03:22:47;;;;;;;;;;;21.80;27.80;;;;;;5025129;28;20304;-43
2022/02/19 03:25:17;;;;;;;;;;;21.80;27.80;;;;;;5021838;28;19909;-45
2022/02/19 03:27:44;;;;;;;;;;;21.70;27.70;;;;;;5025170;28;19971;-42
2022/02/19 03:30:14;;;;;;;;;;;21.70;27.70;;;;;;5015939;28;19939;-44
2022/02/19 03:32:40;;;;;;;;;;;21.70;27.70;;;;;;5023981;28;19963;-45
2022/02/19 03:35:12;;;;;;;;;;;21.70;27.80;;;;;;5025510;28;19939;-44
2022/02/19 03:37:39;;;;;;;;;;;21.70;27.70;;;;;;5031342;28;21698;-43
2022/02/19 03:40:14;;;;;;;;;;;21.70;27.70;;;;;;5027013;28;20332;-43
2022/02/19 03:42:41;;;;;;;;;;;21.70;27.80;;;;;;5030813;28;19906;-42
2022/02/19 03:45:09;;;;;;;;;;;21.70;27.80;;;;;;5024811;28;19938;-41
2022/02/19 03:47:35;;;;;;;;;;;21.70;27.80;;;;;;5029774;28;19905;-43
2022/02/19 03:50:08;;;;;;;;;;;21.60;27.70;;;;;;5030334;28;19905;-45
2022/02/19 03:52:37;;;;;;;;;;;21.60;27.80;;;;;;5031365;28;19963;-41
2022/02/19 03:55:05;;;;;;;;;;;21.60;27.70;;;;;;5019215;28;20018;-42
2022/02/19 03:57:31;;;;;;;;;;;21.60;27.70;;;;;;5015941;28;19906;-43
2022/02/19 03:59:57;;;;;;;;;;;21.60;27.80;;;;;;5028298;28;19980;-42
2022/02/19 04:02:23;;;;;;;;;;;21.60;27.80;;;;;;5016410;28;19934;-41
2022/02/19 04:04:50;;;;;;;;;;;21.60;27.80;;;;;;5028664;28;19916;-44
2022/02/19 04:07:16;;;;;;;;;;;21.60;27.80;;;;;;5016602;28;19916;-45
2022/02/19 04:09:54;;;;;;;;;;;21.60;27.80;;;;;;5018735;28;19905;-41
2022/02/19 04:12:22;;;;;;;;;;;21.60;27.80;;;;;;5019618;28;19909;-44
2022/02/19 04:14:52;;;;;;;;;;;21.60;27.80;;;;;;5024610;28;20217;-43
2022/02/19 04:17:18;;;;;;;;;;;21.50;27.80;;;;;;5032100;28;19916;-44
2022/02/19 04:19:44;;;;;;;;;;;21.50;27.80;;;;;;5026229;28;20240;-46
2022/02/19 04:22:10;;;;;;;;;;;21.50;27.80;;;;;;5024911;28;19906;-48
2022/02/19 04:24:37;;;;;;;;;;;21.50;27.80;;;;;;5024847;28;19905;-46
2022/02/19 04:27:07;;;;;;;;;;;21.50;27.80;;;;;;5015072;28;19945;-40
2022/02/19 04:29:34;;;;;;;;;;;21.50;27.80;;;;;;5027485;28;19915;-42
2022/02/19 04:32:02;;;;;;;;;;;21.50;27.80;;;;;;5022417;28;19913;-45
2022/02/19 04:34:51;;;;;;;;;;;21.50;27.80;;;;;;5021463;28;19913;-42
2022/02/19 04:37:17;;;;;;;;;;;21.50;27.80;;;;;;5019985;28;19947;-44
2022/02/19 04:39:43;;;;;;;;;;;21.50;27.80;;;;;;5014028;28;19932;-41
2022/02/19 04:42:17;;;;;;;;;;;21.50;27.80;;;;;;5039578;28;20339;-42
2022/02/19 04:44:43;;;;;;;;;;;21.50;27.80;;;;;;5025227;28;19909;-43
2022/02/19 04:47:09;;;;;;;;;;;21.40;27.80;;;;;;5016130;28;19905;-47
2022/02/19 04:49:35;;;;;;;;;;;21.40;27.80;;;;;;5029105;28;20034;-47
2022/02/19 04:52:01;;;;;;;;;;;21.40;28.30;;;;;;5028076;28;20323;-41
2022/02/19 04:54:29;;;;;;;;;;;21.40;27.80;;;;;;5018296;28;20003;-44
2022/02/19 04:56:55;;;;;;;;;;;21.40;27.80;;;;;;5017739;28;19905;-45
2022/02/19 04:59:20;;;;;;;;;;;21.40;27.80;;;;;;5030949;28;20060;-46
2022/02/19 05:01:48;;;;;;;;;;;21.40;27.80;;;;;;5020255;28;19913;-45
2022/02/19 05:04:17;;;;;;;;;;;21.40;27.80;;;;;;5017943;28;19905;-41
2022/02/19 05:07:06;;;;;;;;;;;21.40;27.80;;;;;;5020424;28;20213;-44
2022/02/19 05:09:31;;;;;;;;;;;21.40;27.80;;;;;;5031605;28;19931;-40
2022/02/19 05:12:00;;;;;;;;;;;21.40;27.80;;;;;;5029396;28;19905;-40
2022/02/19 05:14:26;;;;;;;;;;;21.40;27.80;;;;;;5024068;28;19906;-44
2022/02/19 05:16:57;;;;;;;;;;;21.40;27.80;;;;;;5032426;28;19915;-43
2022/02/19 05:19:32;;;;;;;;;;;21.40;28.30;;;;;;5029540;28;20027;-40
2022/02/19 05:21:59;;;;;;;;;;;21.30;27.80;;;;;;5018851;28;20182;-46
2022/02/19 05:24:26;;;;;;;;;;;21.30;27.80;;;;;;5020451;28;19917;-46
2022/02/19 05:27:00;;;;;;;;;;;21.40;27.80;;;;;;5027224;28;19905;-45
2022/02/19 05:29:26;;;;;;;;;;;21.30;27.80;;;;;;5024600;28;19917;-42
2022/02/19 05:31:52;;;;;;;;;;;21.30;27.80;;;;;;5019351;28;20196;-43
2022/02/19 05:34:26;;;;;;;;;;;21.30;27.80;;;;;;5033984;28;19917;-42
2022/02/19 05:36:55;;;;;;;;;;;21.30;27.80;;;;;;5030652;28;19927;-42
2022/02/19 05:39:21;;;;;;;;;;;21.30;27.80;;;;;;5023734;28;19942;-42
2022/02/19 05:41:48;;;;;;;;;;;21.30;28.30;;;;;;5018118;28;20208;-40
2022/02/19 05:44:20;;;;;;;;;;;21.30;27.80;;;;;;5018604;28;19916;-40
2022/02/19 05:46:46;;;;;;;;;;;21.30;27.80;;;;;;5023154;28;20304;-42
2022/02/19 05:49:12;;;;;;;;;;;21.30;27.80;;;;;;5027367;28;20020;-41
2022/02/19 05:51:56;;;;;;;;;;;21.30;27.80;;;;;;5033340;28;19916;-39
2022/02/19 05:54:30;;;;;;;;;;;21.20;27.80;;;;;;5024075;28;19995;-40
2022/02/19 05:57:05;;;;;;;;;;;21.30;27.80;;;;;;5022367;28;19913;-40
2022/02/19 05:59:30;;;;;;;;;;;21.20;27.80;;;;;;5021524;28;19906;-43
2022/02/19 06:01:57;;;;;;;;;;;21.20;27.80;;;;;;5028777;28;19931;-42
2022/02/19 06:04:23;;;;;;;;;;;21.20;27.80;;;;;;5027247;28;20343;-42
2022/02/19 06:06:49;;;;;;;;;;;21.20;27.80;;;;;;5033682;28;20003;-42
2022/02/19 06:09:17;;;;;;;;;;;21.20;27.80;;;;;;5028478;28;19905;-42
2022/02/19 06:11:43;;;;;;;;;;;21.20;27.80;;;;;;5033405;28;19909;-43
2022/02/19 06:14:27;;;;;;;;;;;21.20;27.80;;;;;;5032309;28;19921;-43
2022/02/19 06:16:59;;;;;;;;;;;21.20;27.80;;;;;;5029594;28;19906;-44
2022/02/19 06:19:24;;;;;;;;;;;21.20;27.80;;;;;;5017189;28;20344;-44
2022/02/19 06:21:50;;;;;;;;;;;21.20;27.80;;;;;;5019015;28;19987;-46
2022/02/19 06:24:18;;;;;;;;;;;21.20;27.80;;;;;;5032670;28;19932;-42
2022/02/19 06:26:44;;;;;;;;;;;21.20;27.80;;;;;;5029506;28;20312;-42
2022/02/19 06:29:18;;;;;;;;;;;21.20;27.90;;;;;;5020790;28;20248;-44
2022/02/19 06:31:49;;;;;;;;;;;21.20;27.90;;;;;;5033488;28;19915;-47
2022/02/19 06:34:15;;;;;;;;;;;21.20;27.90;;;;;;5031114;28;19909;-44
2022/02/19 06:36:40;;;;;;;;;;;21.10;27.80;;;;;;5024547;28;19913;-42
2022/02/19 06:39:06;;;;;;;;;;;21.10;27.80;;;;;;5032979;28;19952;-40
2022/02/19 06:41:34;;;;;;;;;;;21.10;27.90;;;;;;5034104;28;19904;-43
2022/02/19 06:44:09;;;;;;;;;;;21.10;27.90;;;;;;5022160;28;19905;-41
2022/02/19 06:46:38;;;;;;;;;;;21.10;27.90;;;;;;5027202;28;19904;-43
2022/02/19 06:49:04;;;;;;;;;;;21.10;27.90;;;;;;5019532;28;19905;-42
2022/02/19 06:51:35;;;;;;;;;;;21.10;27.90;;;;;;5029872;28;19924;-41
2022/02/19 06:54:01;;;;;;;;;;;21.10;27.90;;;;;;5032355;28;19953;-43
2022/02/19 06:56:27;;;;;;;;;;;21.10;27.90;;;;;;5028813;28;20015;-41
2022/02/19 06:58:55;;;;;;;;;;;21.10;27.90;;;;;;5021811;28;19909;-41
2022/02/19 07:01:20;;;;;;;;;;;21.10;27.90;;;;;;5020279;28;19917;-45
2022/02/19 07:03:46;;;;;;;;;;;21.10;27.90;;;;;;5019180;28;19928;-42
2022/02/19 07:06:32;;;;;;;;;;;21.10;28.00;;;;;;4996473;28;20240;-43
2022/02/19 07:08:58;;;;;;;;;;;21.10;27.90;;;;;;5032074;28;19909;-41
2022/02/19 07:11:24;;;;;;;;;;;21.00;27.90;;;;;;5027768;28;19999;-42
2022/02/19 07:13:50;;;;;;;;;;;21.00;27.90;;;;;;5028305;28;19912;-42
2022/02/19 07:16:16;;;;;;;;;;;21.00;27.90;;;;;;5029969;28;19923;-44
2022/02/19 07:18:45;;;;;;;;;;;21.10;28.00;;;;;;5029177;28;20231;-43
2022/02/19 07:21:15;;;;;;;;;;;21.00;28.00;;;;;;5018781;28;19905;-42
2022/02/19 07:23:42;;;;;;;;;;;21.00;28.00;;;;;;5018954;28;19905;-43
2022/02/19 07:26:10;;;;;;;;;;;21.00;28.00;;;;;;5025381;28;20290;-42
2022/02/19 07:28:38;;;;;;;;;;;21.00;28.00;;;;;;5020849;28;20260;-42
2022/02/19 07:31:06;;;;;;;;;;;21.00;28.00;;;;;;5021490;28;20240;-45
2022/02/19 07:33:31;;;;;;;;;;;21.00;28.00;;;;;;5029573;28;19905;-43
2022/02/19 07:36:00;;;;;;;;;;;21.00;28.00;;;;;;5029953;28;19993;-43
2022/02/19 07:38:27;;;;;;;;;;;21.00;28.00;;;;;;5018294;28;19929;-41
2022/02/19 07:40:53;;;;;;;;;;;21.00;28.00;;;;;;5022756;28;19908;-47
2022/02/19 07:43:26;;;;;;;;;;;21.00;28.10;;;;;;5028959;28;20240;-41
2022/02/19 07:46:11;;;;;;;;;;;21.00;28.10;;;;;;5033161;28;19947;-44
2022/02/19 07:48:55;;;;;;;;;;;21.00;28.10;;;;;;5029786;28;19955;-44
2022/02/19 08:00:04;;;;;;;;;;;21.00;28.20;;;;;;5025875;28;19905;-43
2022/02/19 08:02:40;;;;;;;;;;;21.00;28.20;;;;;;5026091;28;19921;-46
2022/02/19 08:05:06;;;;;;;;;;;21.10;28.20;;;;;;5017894;28;20014;-40
2022/02/19 08:07:32;;;;;;;;;;;21.10;28.20;;;;;;5020668;28;19904;-42
2022/02/19 08:09:57;;;;;;;;;;;21.20;28.20;;;;;;5021940;28;20273;-43
2022/02/19 08:12:23;;;;;;;;;;;21.30;28.10;;;;;;5028402;28;19963;-42
2022/02/19 08:14:49;;;;;;;;;;;21.40;28.10;;;;;;5024793;28;20329;-43
2022/02/19 08:17:15;;;;;;;;;;;21.50;28.10;;;;;;5022517;28;20317;-46
2022/02/19 08:19:40;;;;;;;;;;;21.60;28.10;;;;;;5027640;28;19912;-42
2022/02/19 08:22:06;;;;;;;;;;;21.70;28.00;;;;;;5025570;28;19976;-42
2022/02/19 08:24:31;;;;;;;;;;;21.80;28.00;;;;;;5029607;28;19904;-43
2022/02/19 08:26:57;;;;;;;;;;;21.90;28.00;;;;;;5019119;28;19920;-43
2022/02/19 08:29:23;;;;;;;;;;;22.00;28.00;;;;;;5026391;28;20231;-44
2022/02/19 08:31:48;;;;;;;;;;;22.20;28.10;;;;;;5021108;28;19910;-44
2022/02/19 08:34:14;;;;;;;;;;;22.20;27.90;;;;;;5016162;28;19948;-44
2022/02/19 08:36:39;;;;;;;;;;;22.30;27.90;;;;;;5020394;28;19913;-42
2022/02/19 08:39:05;;;;;;;;;;;22.40;27.90;;;;;;5028511;28;19991;-45
2022/02/19 08:41:31;;;;;;;;;;;22.50;27.90;;;;;;5022609;28;19991;-42
2022/02/19 08:43:56;;;;;;;;;;;22.60;28.00;;;;;;5030518;28;20299;-43
2022/02/19 08:46:22;;;;;;;;;;;22.60;27.90;;;;;;5033548;28;19905;-43
2022/02/19 08:48:47;;;;;;;;;;;22.70;27.90;;;;;;5032472;28;19920;-46
2022/02/19 08:51:13;;;;;;;;;;;22.70;27.90;;;;;;5022260;28;19940;-44
2022/02/19 08:53:39;;;;;;;;;;;22.90;27.90;;;;;;5034668;28;19905;-41
2022/02/19 08:56:04;;;;;;;;;;;22.90;27.90;;;;;;5025510;28;19924;-44
2022/02/19 08:58:30;;;;;;;;;;;23.00;27.80;;;;;;5024053;28;19920;-42
2022/02/19 09:00:56;;;;;;;;;;;23.10;27.80;;;;;;5022093;28;19963;-43
2022/02/19 09:03:22;;;;;;;;;;;23.20;27.80;;;;;;5043823;28;19915;-45
2022/02/19 09:05:48;;;;;;;;;;;23.20;27.70;;;;;;5042747;28;19921;-44
2022/02/19 09:08:14;;;;;;;;;;;23.30;27.70;;;;;;5045445;28;19912;-40
2022/02/19 09:10:40;;;;;;;;;;;23.40;27.70;;;;;;5038082;28;19905;-40
2022/02/19 09:13:05;;;;;;;;;;;23.50;27.60;;;;;;5040767;28;19916;-42
2022/02/19 09:15:31;;;;;;;;;;;23.50;27.50;;;;;;5042956;28;19924;-45
2022/02/19 09:17:57;;;;;;;;;;;23.60;27.50;;;;;;5047280;28;19912;-45
2022/02/19 09:20:23;;;;;;;;;;;23.70;27.50;;;;;;5044062;28;19919;-43
2022/02/19 09:22:49;;;;;;;;;;;23.70;27.40;;;;;;5041685;28;19917;-42
2022/02/19 09:25:15;;;;;;;;;;;23.80;27.40;;;;;;5043917;28;19916;-48
2022/02/19 09:27:41;;;;;;;;;;;23.90;27.40;;;;;;5042315;28;19905;-42
2022/02/19 09:30:08;;;;;;;;;;;24.00;27.30;;;;;;5037394;28;20279;-41
2022/02/19 09:32:33;;;;;;;;;;;24.00;27.30;;;;;;5039748;28;19909;-41
2022/02/19 09:34:59;;;;;;;;;;;24.00;27.30;;;;;;5042529;28;19935;-41
2022/02/19 09:37:28;;;;;;;;;;;24.10;27.40;;;;;;5045417;28;20243;-42
2022/02/19 09:39:56;;;;;;;;;;;24.10;27.40;;;;;;5041553;28;19939;-43
2022/02/19 09:42:22;;;;;;;;;;;24.10;27.40;;;;;;5042912;28;19970;-44
2022/02/19 09:44:48;;;;;;;;;;;24.20;27.40;;;;;;5039435;28;19904;-43
2022/02/19 09:47:15;;;;;;;;;;;24.20;27.40;;;;;;5044999;28;20301;-41
2022/02/19 09:49:41;;;;;;;;;;;24.20;27.30;;;;;;5048626;28;20320;-44
2022/02/19 09:52:07;;;;;;;;;;;24.30;27.30;;;;;;5055251;28;19920;-42
2022/02/19 09:54:33;;;;;;;;;;;24.30;27.30;;;;;;5056291;28;19905;-44
2022/02/19 09:56:58;;;;;;;;;;;24.30;27.30;;;;;;5039939;28;19911;-42
2022/02/19 09:59:24;;;;;;;;;;;24.30;27.30;;;;;;5056797;28;19923;-45
2022/02/19 10:02:04;;;;;;;;;;;24.30;27.20;;;;;;5057402;28;19975;-42
2022/02/19 10:04:29;;;;;;;;;;;24.30;27.20;;;;;;5038972;28;19905;-48
2022/02/19 10:07:02;;;;;;;;;;;24.30;27.20;;;;;;5044760;28;19918;-41
2022/02/19 10:09:28;;;;;;;;;;;24.20;27.20;;;;;;5049072;28;19997;-45
2022/02/19 10:11:53;;;;;;;;;;;24.20;27.20;;;;;;5038538;28;19951;-44
2022/02/19 10:14:25;;;;;;;;;;;24.20;27.20;;;;;;5048659;28;20248;-43
2022/02/19 10:17:16;;;;;;;;;;;24.20;27.20;;;;;;5057154;28;19912;-41
2022/02/19 10:19:49;;;;;;;;;;;24.10;27.20;;;;;;5044863;28;19965;-42
2022/02/19 10:22:15;;;;;;;;;;;24.10;27.20;;;;;;5052348;28;19905;-42
2022/02/19 10:24:45;;;;;;;;;;;24.10;27.20;;;;;;5040149;28;19991;-48
2022/02/19 10:27:10;;;;;;;;;;;24.10;27.30;;;;;;5050536;28;19909;-40
2022/02/19 10:29:55;;;;;;;;;;;24.10;27.30;;;;;;5053280;28;19959;-45
2022/02/19 10:32:22;;;;;;;;;;;24.10;27.40;;;;;;5036496;28;19915;-43
2022/02/19 10:35:02;;;;;;;;;;;24.10;27.40;;;;;;5038481;28;19908;-47
2022/02/19 10:37:28;;;;;;;;;;;24.10;27.30;;;;;;5036359;28;19913;-41
2022/02/19 10:39:57;;;;;;;;;;;24.10;27.30;;;;;;5038941;28;20245;-40
2022/02/19 10:42:36;;;;;;;;;;;24.00;27.20;;;;;;5035504;28;19996;-42
2022/02/19 10:45:09;;;;;;;;;;;24.00;27.20;;;;;;5037822;28;19908;-43
2022/02/19 10:47:35;;;;;;;;;;;24.00;27.20;;;;;;5053494;28;20335;-41
2022/02/19 10:50:16;;;;;;;;;;;23.90;27.20;;;;;;5043023;28;20292;-43
2022/02/19 10:52:51;;;;;;;;;;;23.90;27.20;;;;;;5051789;28;19904;-42
2022/02/19 10:55:20;;;;;;;;;;;23.90;27.20;;;;;;5040200;28;19956;-43
2022/02/19 10:57:46;;;;;;;;;;;23.80;27.20;;;;;;5035776;28;19905;-40
2022/02/19 11:00:18;;;;;;;;;;;23.70;27.20;;;;;;5046053;28;19905;-42
2022/02/19 11:02:44;;;;;;;;;;;23.70;27.20;;;;;;5037222;28;19917;-42
2022/02/19 11:05:11;;;;;;;;;;;23.70;27.20;;;;;;5042589;28;20396;-43
2022/02/19 11:07:39;;;;;;;;;;;23.70;27.20;;;;;;5041407;28;19931;-44
2022/02/19 11:10:06;;;;;;;;;;;23.60;27.10;;;;;;5054149;28;19905;-42
2022/02/19 11:12:31;;;;;;;;;;;23.60;27.20;;;;;;5055687;28;20657;-40
2022/02/19 11:15:06;;;;;;;;;;;23.60;27.10;;;;;;5055069;28;20019;-42
2022/02/19 11:17:34;;;;;;;;;;;23.60;27.20;;;;;;5055008;28;19965;-42
2022/02/19 11:20:00;;;;;;;;;;;23.60;27.20;;;;;;5053340;28;19991;-42
2022/02/19 11:22:28;;;;;;;;;;;23.60;27.20;;;;;;5055323;28;19916;-45
2022/02/19 11:24:54;;;;;;;;;;;23.60;27.20;;;;;;5054795;28;20243;-43
2022/02/19 11:27:19;;;;;;;;;;;23.50;27.10;;;;;;5051925;28;19962;-42
2022/02/19 11:29:46;;;;;;;;;;;23.60;27.20;;;;;;5048779;28;19971;-44
2022/02/19 11:32:16;;;;;;;;;;;23.60;27.20;;;;;;5043324;28;19904;-43
2022/02/19 11:34:49;;;;;;;;;;;23.50;27.20;;;;;;5047603;28;19991;-44
2022/02/19 11:37:16;;;;;;;;;;;23.50;27.20;;;;;;5044256;28;19932;-40
2022/02/19 11:40:01;;;;;;;;;;;23.60;27.20;;;;;;5039779;28;19915;-41
2022/02/19 11:42:36;;;;;;;;;;;23.50;27.20;;;;;;5041583;28;20353;-41
2022/02/19 11:45:20;;;;;;;;;;;23.50;27.20;;;;;;5047051;28;20316;-41
2022/02/19 11:48:12;;;;;;;;;;;23.50;27.20;;;;;;5037366;28;19996;-43
2022/02/19 11:50:42;;;;;;;;;;;23.50;27.20;;;;;;5040127;28;20217;-51
2022/02/19 11:53:09;;;;;;;;;;;23.50;27.20;;;;;;5041088;28;19905;-48
2022/02/19 11:55:36;;;;;;;;;;;23.50;27.20;;;;;;5050833;28;19962;-41
2022/02/19 11:58:06;;;;;;;;;;;23.50;27.30;;;;;;5050960;28;19967;-44
2022/02/19 12:00:44;;;;;;;;;;;23.50;27.30;;;;;;5044494;28;19915;-40
2022/02/19 12:03:24;;;;;;;;;;;23.50;27.30;;;;;;5038305;28;19913;-40
2022/02/19 12:06:09;;;;;;;;;;;23.50;27.40;;;;;;5047868;28;19906;-45
2022/02/19 12:08:47;;;;;;;;;;;23.50;27.50;;;;;;5035421;28;19916;-43
2022/02/19 12:11:14;;;;;;;;;;;23.50;27.60;;;;;;5045641;28;19905;-43
2022/02/19 12:13:44;;;;;;;;;;;23.50;27.70;;;;;;5048786;28;19959;-41
2022/02/19 12:16:27;;;;;;;;;;;23.50;27.70;;;;;;5035035;28;19913;-48
2022/02/19 12:18:57;;;;;;;;;;;23.50;27.80;;;;;;5038918;28;19909;-44
2022/02/19 12:21:33;;;;;;;;;;;23.50;27.80;;;;;;5039943;28;19905;-40
2022/02/19 12:24:12;;;;;;;;;;;23.50;27.80;;;;;;5034986;28;19909;-44
2022/02/19 12:26:56;;;;;;;;;;;23.50;27.80;;;;;;5035664;28;21860;-41
2022/02/19 12:29:29;;;;;;;;;;;23.40;27.80;;;;;;5037497;28;19905;-45
2022/02/19 12:32:07;;;;;;;;;;;23.40;27.80;;;;;;5040039;28;19948;-41
2022/02/19 12:34:34;;;;;;;;;;;23.40;27.80;;;;;;5046655;28;19905;-42
2022/02/19 12:37:00;;;;;;;;;;;23.40;27.80;;;;;;5040043;28;19913;-46
2022/02/19 12:39:26;;;;;;;;;;;23.40;27.80;;;;;;5041873;28;19966;-41
2022/02/19 12:41:56;;;;;;;;;;;23.40;27.90;;;;;;5036054;28;20273;-41
2022/02/19 12:44:22;;;;;;;;;;;23.40;27.90;;;;;;5032986;28;20316;-44
2022/02/19 12:46:47;;;;;;;;;;;23.30;27.80;;;;;;5050407;28;19994;-41
2022/02/19 12:49:16;;;;;;;;;;;23.30;27.90;;;;;;5045325;28;19913;-41
2022/02/19 12:51:42;;;;;;;;;;;23.30;28.40;;;;;;5046681;28;19947;-44
2022/02/19 12:54:08;;;;;;;;;;;23.30;27.90;;;;;;5037602;28;19912;-41
2022/02/19 12:56:38;;;;;;;;;;;23.30;27.90;;;;;;5037741;28;19940;-41
2022/02/19 12:59:04;;;;;;;;;;;23.30;27.90;;;;;;5044796;28;19974;-43
2022/02/19 13:01:30;;;;;;;;;;;23.30;27.90;;;;;;5041809;28;19932;-42
2022/02/19 13:03:55;;;;;;;;;;;23.20;27.80;;;;;;5035962;28;19909;-43
2022/02/19 13:06:23;;;;;;;;;;;23.20;27.80;;;;;;5042414;28;19913;-45
2022/02/19 13:08:57;;;;;;;;;;;23.20;27.90;;;;;;5033888;28;19995;-42
2022/02/19 13:11:23;;;;;;;;;;;23.20;27.90;;;;;;5041287;28;19916;-41
2022/02/19 13:13:48;;;;;;;;;;;23.20;27.90;;;;;;5038293;28;20365;-43
2022/02/19 13:16:14;;;;;;;;;;;23.20;27.90;;;;;;5041373;28;19975;-42
2022/02/19 13:18:41;;;;;;;;;;;23.30;27.90;;;;;;5039595;28;19905;-46
2022/02/19 13:21:07;;;;;;;;;;;23.30;28.10;;;;;;5044452;28;20039;-45
2022/02/19 13:23:33;;;;;;;;;;;23.30;28.10;;;;;;5035731;28;19995;-45
2022/02/19 13:26:00;;;;;;;;;;;23.30;28.10;;;;;;5037824;28;20321;-43
2022/02/19 13:28:25;;;;;;;;;;;23.20;28.10;;;;;;5042496;28;19959;-42
2022/02/19 13:31:05;;;;;;;;;;;23.20;28.10;;;;;;5057757;28;19912;-43
2022/02/19 13:33:30;;;;;;;;;;;23.20;28.10;;;;;;5051940;28;19939;-45
2022/02/19 13:35:56;;;;;;;;;;;23.20;28.10;;;;;;5038812;28;19975;-45
2022/02/19 13:38:21;;;;;;;;;;;23.20;28.10;;;;;;5056310;28;20316;-42
2022/02/19 13:40:55;;;;;;;;;;;23.20;28.10;;;;;;5057415;28;19915;-46
2022/02/19 13:43:21;;;;;;;;;;;23.10;28.00;;;;;;5045372;28;19909;-42
2022/02/19 13:45:48;;;;;;;;;;;23.10;28.00;;;;;;5047756;28;19973;-44
2022/02/19 13:48:21;;;;;;;;;;;23.10;28.10;;;;;;5037018;28;19968;-44
2022/02/19 13:50:49;;;;;;;;;;;23.10;28.10;;;;;;5043819;28;19924;-43
2022/02/19 13:53:18;;;;;;;;;;;23.10;28.00;;;;;;5046220;28;19909;-47
2022/02/19 13:55:50;;;;;;;;;;;23.10;28.00;;;;;;5036785;28;19912;-41
2022/02/19 13:58:17;;;;;;;;;;;23.10;28.00;;;;;;5038963;28;19905;-44
2022/02/19 14:00:44;;;;;;;;;;;23.10;28.10;;;;;;5046195;28;20324;-47
2022/02/19 14:03:10;;;;;;;;;;;23.10;28.10;;;;;;5037000;28;19913;-48
2022/02/19 14:05:37;;;;;;;;;;;23.20;28.10;;;;;;5040892;28;20316;-44
2022/02/19 14:08:03;;;;;;;;;;;23.10;28.10;;;;;;5042871;28;19971;-45
2022/02/19 14:10:28;;;;;;;;;;;23.10;28.10;;;;;;5038271;28;20316;-45
2022/02/19 14:12:54;;;;;;;;;;;23.10;28.10;;;;;;5040563;28;19904;-42
2022/02/19 14:15:33;;;;;;;;;;;23.20;28.30;;;;;;5048392;28;20354;-45
2022/02/19 14:18:08;;;;;;;;;;;23.10;28.20;;;;;;5042669;28;19920;-45
2022/02/19 14:20:35;;;;;;;;;;;23.10;28.30;;;;;;5043419;28;19909;-52
2022/02/19 14:23:11;;;;;;;;;;;23.10;28.30;;;;;;5047430;28;19905;-44
2022/02/19 14:25:41;;;;;;;;;;;23.10;28.30;;;;;;5041079;28;19916;-46
2022/02/19 14:28:06;;;;;;;;;;;23.10;28.40;;;;;;5043179;28;19913;-45
2022/02/19 14:30:36;;;;;;;;;;;23.20;28.40;;;;;;5042545;28;19948;-45
2022/02/19 14:33:03;;;;;;;;;;;23.20;28.40;;;;;;5046395;28;19905;-51